Time;durP1;ratioP1;P1;durP2;ratioP2;P2;SDS_P1;SDS_P2;PMS_P1;PMS_P2;Temp;Humidity;BMP_temperature;BMP_pressure;BME280_temperature;BME280_humidity;BME280_pressure;Samples;Min_cycle;Max_cycle;Signal;HPM_P1;HPM_P2
2023/08/29 00:01:29;;;;;;;5.70;5.10;;;;;;;19.24;79.05;96448.91;110262;1241;72003;-66
2023/08/29 00:04:00;;;;;;;5.90;4.30;;;;;;;19.19;79.79;96456.04;110225;1242;69220;-67
2023/08/29 00:06:31;;;;;;;5.40;4.40;;;;;;;19.14;83.79;96462.38;110212;1242;69180;-66
2023/08/29 00:09:03;;;;;;;4.60;4.00;;;;;;;19.08;82.97;96465.22;110185;1241;59748;-65
2023/08/29 00:11:35;;;;;;;4.50;3.80;;;;;;;19.01;78.53;96463.10;110205;1242;59675;-65
2023/08/29 00:14:05;;;;;;;5.80;5.10;;;;;;;18.95;78.39;96459.73;110263;1244;71434;-66
2023/08/29 00:16:37;;;;;;;6.50;5.80;;;;;;;18.88;80.24;96454.64;110170;1242;69196;-66
2023/08/29 00:19:09;;;;;;;6.30;5.30;;;;;;;18.80;82.56;96453.38;110185;1241;68524;-66
2023/08/29 00:21:42;;;;;;;5.90;5.00;;;;;;;18.74;87.80;96451.91;110197;1240;59721;-66
2023/08/29 00:24:12;;;;;;;5.40;4.90;;;;;;;18.69;82.60;96447.94;110183;1241;59703;-65
2023/08/29 00:26:45;;;;;;;5.20;4.60;;;;;;;18.65;80.06;96450.27;110168;1241;71743;-66
2023/08/29 00:29:18;;;;;;;6.20;4.90;;;;;;;18.62;80.78;96450.48;110186;1242;69039;-65
2023/08/29 00:31:49;;;;;;;6.60;5.50;;;;;;;18.60;80.90;96450.21;110214;1242;69106;-65
2023/08/29 00:34:23;;;;;;;7.50;5.60;;;;;;;18.58;81.43;96452.20;110198;1241;59747;-66
2023/08/29 00:36:56;;;;;;;8.80;6.30;;;;;;;18.54;84.89;96454.09;110237;1240;59749;-66
2023/08/29 00:39:26;;;;;;;7.40;6.20;;;;;;;18.47;84.71;96460.99;110208;1240;71431;-66
2023/08/29 00:41:57;;;;;;;9.50;7.10;;;;;;;18.33;87.47;96462.41;110252;1249;68172;-65
2023/08/29 00:44:27;;;;;;;7.20;6.10;;;;;;;18.22;87.44;96462.73;110235;1241;68563;-67
2023/08/29 00:47:04;;;;;;;7.80;5.50;;;;;;;18.15;89.26;96457.14;110207;1242;59682;-66
2023/08/29 00:49:39;;;;;;;6.10;5.50;;;;;;;18.11;87.87;96454.61;110230;1242;59653;-65
2023/08/29 00:52:10;;;;;;;5.60;5.00;;;;;;;18.05;88.08;96456.06;110188;1241;70651;-65
2023/08/29 00:54:42;;;;;;;6.80;5.10;;;;;;;17.99;92.28;96462.54;110181;1242;69459;-66
2023/08/29 00:57:14;;;;;;;6.80;5.80;;;;;;;17.93;93.83;96459.63;110234;1242;69280;-68
2023/08/29 00:59:44;;;;;;;5.80;5.00;;;;;;;17.88;90.29;96465.34;110282;1242;59734;-68
2023/08/29 01:02:17;;;;;;;6.40;4.80;;;;;;;17.82;92.00;96464.95;110140;1244;59719;-68
2023/08/29 01:04:48;;;;;;;5.60;4.10;;;;;;;17.77;90.55;96468.54;110201;1245;71363;-67
2023/08/29 01:07:19;;;;;;;6.00;4.50;;;;;;;17.74;91.85;96470.80;110229;1241;68462;-69
2023/08/29 01:09:50;;;;;;;6.90;4.50;;;;;;;17.72;88.82;96467.98;110228;1242;69327;-69
2023/08/29 01:12:19;;;;;;;;;;;;;;;17.74;91.81;96461.52;110300;1242;59709;-68
2023/08/29 01:15:03;;;;;;;;;;;;;;;17.74;93.32;96455.48;110236;1240;59689;-68
2023/08/29 01:17:41;;;;;;;5.10;4.00;;;;;;;17.74;93.74;96455.44;110238;1242;70618;-68
2023/08/29 01:20:14;;;;;;;4.90;3.70;;;;;;;17.72;90.46;96453.16;110250;1242;68766;-68
2023/08/29 01:22:55;;;;;;;5.80;3.80;;;;;;;17.72;88.16;96450.22;110227;1241;69192;-69
2023/08/29 01:25:52;;;;;;;7.10;4.30;;;;;;;17.73;93.36;96446.83;110227;1241;59756;-67
2023/08/29 01:28:23;;;;;;;6.60;3.80;;;;;;;17.69;91.85;96446.21;110256;1242;59760;-69
2023/08/29 01:30:56;;;;;;;4.70;3.80;;;;;;;17.65;94.13;96446.27;110186;1245;70442;-68
2023/08/29 01:33:28;;;;;;;4.40;4.00;;;;;;;17.63;94.13;96451.33;110313;1241;69277;-69
2023/08/29 01:35:58;;;;;;;5.10;3.40;;;;;;;17.61;93.14;96452.62;110166;1243;69602;-68
2023/08/29 01:38:29;;;;;;;6.50;3.70;;;;;;;17.59;88.19;96456.50;110297;1242;59690;-68
2023/08/29 01:41:00;;;;;;;5.70;3.90;;;;;;;17.59;92.07;96459.48;110297;1241;59698;-68
2023/08/29 01:43:31;;;;;;;5.30;3.90;;;;;;;17.58;93.33;96458.41;110214;1240;71372;-68
2023/08/29 01:46:03;;;;;;;5.70;4.60;;;;;;;17.56;91.72;96457.15;110163;1243;68108;-70
2023/08/29 01:48:34;;;;;;;5.60;4.40;;;;;;;17.53;86.81;96462.17;110250;1242;69174;-70
2023/08/29 01:51:03;;;;;;;5.00;4.00;;;;;;;17.47;91.12;96455.26;110165;1243;59724;-69
2023/08/29 01:53:33;;;;;;;5.70;4.20;;;;;;;17.44;95.05;96455.45;110172;1240;59747;-68
2023/08/29 01:56:05;;;;;;;4.90;4.30;;;;;;;17.42;95.48;96447.77;110250;1240;70737;-69
2023/08/29 01:58:40;;;;;;;6.30;4.80;;;;;;;17.38;92.65;96447.30;110227;1242;69157;-68
2023/08/29 02:01:12;;;;;;;4.90;4.20;;;;;;;17.34;91.61;96445.02;110175;1245;69292;-68
2023/08/29 02:03:53;;;;;;;4.90;3.70;;;;;;;17.29;93.28;96438.85;110255;1242;59692;-68
2023/08/29 02:06:24;;;;;;;4.80;4.30;;;;;;;17.23;98.51;96441.77;110286;1241;59688;-68
2023/08/29 02:08:58;;;;;;;5.60;4.60;;;;;;;17.17;99.46;96442.14;110195;1243;71301;-68
2023/08/29 02:11:30;;;;;;;5.60;4.10;;;;;;;17.12;99.23;96445.74;110273;1242;69536;-68
2023/08/29 02:14:00;;;;;;;6.20;4.50;;;;;;;17.09;95.91;96450.16;110171;1242;68352;-68
2023/08/29 02:16:31;;;;;;;5.90;4.80;;;;;;;17.03;98.19;96450.05;110205;1241;59664;-68
2023/08/29 02:19:02;;;;;;;6.60;4.10;;;;;;;16.99;95.55;96446.33;110232;1242;59649;-68
2023/08/29 02:21:33;;;;;;;5.30;3.70;;;;;;;16.95;93.71;96440.44;110270;1241;71231;-68
2023/08/29 02:24:06;;;;;;;5.30;4.20;;;;;;;16.94;99.13;96436.35;110246;1240;68532;-68
2023/08/29 02:26:36;;;;;;;5.70;3.80;;;;;;;16.92;98.98;96432.23;110232;1241;68900;-68
2023/08/29 02:29:10;;;;;;;6.40;3.90;;;;;;;16.90;98.59;96431.23;110215;1242;59666;-68
2023/08/29 02:31:45;;;;;;;4.70;4.00;;;;;;;16.88;96.43;96437.56;110109;1240;59744;-68
2023/08/29 02:34:16;;;;;;;5.40;4.20;;;;;;;16.87;97.34;96439.45;110210;1242;71533;-68
2023/08/29 02:36:47;;;;;;;5.20;4.00;;;;;;;16.85;98.63;96440.20;110266;1242;69279;-68
2023/08/29 02:39:19;;;;;;;5.70;4.50;;;;;;;16.82;97.66;96439.52;110173;1244;69231;-68
2023/08/29 02:41:50;;;;;;;8.40;6.00;;;;;;;16.77;93.42;96442.63;110196;1242;59739;-68
2023/08/29 02:44:21;;;;;;;6.00;4.90;;;;;;;16.69;92.07;96442.14;110197;1242;59698;-68
2023/08/29 02:46:53;;;;;;;5.10;4.40;;;;;;;16.62;98.39;96444.55;110181;1242;71370;-69
2023/08/29 02:49:24;;;;;;;5.30;4.70;;;;;;;16.59;99.96;96443.83;110225;1242;69309;-68
2023/08/29 02:51:57;;;;;;;5.30;4.50;;;;;;;16.57;99.76;96442.76;110222;1242;69147;-70
2023/08/29 02:54:28;;;;;;;5.20;4.50;;;;;;;16.57;100.00;96439.66;110237;1242;59715;-69
2023/08/29 02:56:58;;;;;;;6.20;4.40;;;;;;;16.55;95.59;96433.58;110238;1241;60525;-68
2023/08/29 02:59:29;;;;;;;6.20;4.30;;;;;;;16.53;98.58;96434.24;110232;1242;71402;-68
2023/08/29 03:02:02;;;;;;;4.80;3.90;;;;;;;16.52;99.13;96433.89;110234;1242;68593;-68
2023/08/29 03:04:32;;;;;;;6.60;4.10;;;;;;;16.50;100.00;96436.20;110199;1242;69371;-68
2023/08/29 03:07:05;;;;;;;5.10;4.20;;;;;;;16.48;100.00;96436.12;110142;1244;59753;-68
2023/08/29 03:09:36;;;;;;;4.70;4.20;;;;;;;16.46;99.86;96434.38;110246;1242;59689;-68
2023/08/29 03:12:07;;;;;;;6.80;4.30;;;;;;;16.42;99.31;96434.95;110265;1242;71548;-68
2023/08/29 03:14:44;;;;;;;4.80;3.90;;;;;;;16.40;99.71;96437.52;110244;1242;69115;-68
2023/08/29 03:17:15;;;;;;;5.10;3.90;;;;;;;16.39;98.91;96439.09;110161;1243;68193;-68
2023/08/29 03:19:48;;;;;;;5.80;4.50;;;;;;;16.37;99.79;96440.30;110238;1240;59692;-68
2023/08/29 03:22:18;;;;;;;5.50;4.90;;;;;;;16.34;97.83;96437.69;110280;1242;59665;-68
2023/08/29 03:24:48;;;;;;;5.60;4.20;;;;;;;16.30;100.00;96441.80;110232;1241;71408;-68
2023/08/29 03:27:18;;;;;;;5.10;4.20;;;;;;;16.23;99.99;96441.09;110195;1241;69507;-68
2023/08/29 03:29:51;;;;;;;5.80;4.90;;;;;;;16.17;99.40;96441.77;110201;1241;68126;-68
2023/08/29 03:32:21;;;;;;;5.50;4.40;;;;;;;16.10;99.94;96443.27;110148;1241;59679;-69
2023/08/29 03:34:54;;;;;;;5.00;4.10;;;;;;;16.02;100.00;96444.12;110198;1243;60088;-69
2023/08/29 03:37:24;;;;;;;4.70;4.20;;;;;;;15.96;99.76;96441.98;110186;1240;70461;-69
2023/08/29 03:39:55;;;;;;;7.40;4.90;;;;;;;15.93;91.50;96438.17;110217;1242;68582;-69
2023/08/29 03:42:25;;;;;;;6.40;4.90;;;;;;;15.89;91.78;96436.51;110159;1245;69901;-68
2023/08/29 03:44:58;;;;;;;6.00;4.80;;;;;;;15.86;91.87;96434.58;110229;1242;59674;-69
2023/08/29 03:47:28;;;;;;;5.70;5.00;;;;;;;15.84;94.79;96435.30;110248;1241;59731;-69
2023/08/29 03:49:58;;;;;;;6.40;5.10;;;;;;;15.83;95.80;96435.77;110274;1241;71396;-70
2023/08/29 03:52:28;;;;;;;5.70;5.10;;;;;;;15.84;97.48;96437.89;110175;1243;68275;-69
2023/08/29 03:55:00;;;;;;;5.60;4.30;;;;;;;15.85;96.76;96436.60;110223;1242;69478;-68
2023/08/29 03:57:31;;;;;;;4.70;4.10;;;;;;;15.87;92.29;96432.70;110168;1240;59713;-69
2023/08/29 04:00:06;;;;;;;5.00;4.30;;;;;;;15.90;99.00;96433.95;110220;1244;59730;-69
2023/08/29 04:02:42;;;;;;;7.60;4.70;;;;;;;15.92;94.92;96428.52;110250;1242;71221;-70
2023/08/29 04:05:14;;;;;;;4.70;4.00;;;;;;;15.99;98.48;96427.98;110250;1242;68631;-70
2023/08/29 04:07:46;;;;;;;7.00;4.20;;;;;;;16.08;100.00;96427.82;110191;1241;67779;-70
2023/08/29 04:10:17;;;;;;;5.00;4.20;;;;;;;16.17;100.00;96431.05;110254;1242;59654;-70
2023/08/29 04:12:48;;;;;;;6.10;4.30;;;;;;;16.27;99.92;96430.30;110221;1242;59736;-69
2023/08/29 04:15:19;;;;;;;5.30;4.40;;;;;;;16.40;99.67;96430.67;110200;1243;69711;-69
2023/08/29 04:17:49;;;;;;;6.70;4.30;;;;;;;16.54;99.78;96429.75;110226;1242;69240;-69
2023/08/29 04:20:18;;;;;;;;;;;;;;;16.69;98.92;96429.09;110134;1241;69306;-68
2023/08/29 04:22:49;;;;;;;;;;;;;;;16.82;99.72;96429.07;110393;1240;59732;-68
2023/08/29 04:25:20;;;;;;;5.50;3.70;;;;;;;16.96;96.09;96431.69;110354;1242;59630;-70
2023/08/29 04:27:50;;;;;;;4.40;3.80;;;;;;;17.13;96.32;96430.52;110158;1244;70883;-68
2023/08/29 04:30:21;;;;;;;5.90;4.30;;;;;;;17.29;93.95;96426.50;110305;1242;69094;-69
2023/08/29 04:32:51;;;;;;;4.30;3.60;;;;;;;17.50;94.07;96426.70;110183;1241;69771;-68
2023/08/29 04:35:21;;;;;;;4.60;3.80;;;;;;;17.70;94.89;96426.66;110231;1242;60062;-68
2023/08/29 04:37:51;;;;;;;5.90;4.20;;;;;;;17.89;94.48;96425.20;110224;1242;59671;-68
2023/08/29 04:40:22;;;;;;;4.60;3.70;;;;;;;18.05;93.65;96429.30;110133;1242;71474;-68
2023/08/29 04:42:53;;;;;;;5.00;3.90;;;;;;;18.28;92.78;96434.81;110205;1241;69127;-68
2023/08/29 04:45:23;;;;;;;6.30;4.20;;;;;;;18.51;91.86;96433.95;110313;1242;69716;-67
2023/08/29 04:47:53;;;;;;;4.90;4.10;;;;;;;18.67;89.99;96430.11;110945;1240;58386;-69
2023/08/29 04:50:26;;;;;;;6.10;5.10;;;;;;;18.86;88.88;96427.63;110207;1240;59704;-69
2023/08/29 04:52:56;;;;;;;6.10;4.80;;;;;;;19.04;89.10;96426.88;110242;1244;71762;-69
2023/08/29 04:55:26;;;;;;;5.60;4.30;;;;;;;19.15;87.68;96427.77;110278;1242;69367;-70
2023/08/29 04:57:58;;;;;;;5.70;4.20;;;;;;;19.36;86.61;96425.02;110200;1241;69185;-70
2023/08/29 05:00:28;;;;;;;6.40;4.80;;;;;;;19.55;85.09;96425.34;110234;1242;59705;-69
2023/08/29 05:02:58;;;;;;;5.20;4.60;;;;;;;19.80;85.15;96430.14;110226;1242;59675;-68
2023/08/29 05:05:27;;;;;;;;;;;;;;;20.03;84.68;96432.33;110238;1242;71859;-69
2023/08/29 05:07:57;;;;;;;5.10;4.50;;;;;;;20.20;83.40;96430.19;110181;1241;69659;-69
2023/08/29 05:10:28;;;;;;;5.40;4.20;;;;;;;20.46;81.52;96428.50;110256;1241;68411;-68
2023/08/29 05:12:57;;;;;;;6.30;5.00;;;;;;;20.62;80.01;96429.29;110265;1241;59741;-69
2023/08/29 05:15:26;;;;;;;6.70;4.90;;;;;;;20.87;81.51;96424.39;110237;1241;59748;-70
2023/08/29 05:17:55;;;;;;;7.30;5.20;;;;;;;21.07;81.22;96419.81;110254;1241;71977;-67
2023/08/29 05:20:25;;;;;;;10.20;5.50;;;;;;;21.28;80.24;96420.31;110255;1242;69183;-67
2023/08/29 05:22:54;;;;;;;8.00;4.80;;;;;;;21.53;79.80;96414.83;110227;1245;70212;-69
2023/08/29 05:25:24;;;;;;;6.50;4.30;;;;;;;21.87;77.09;96416.16;110247;1242;59725;-69
2023/08/29 05:27:53;;;;;;;7.50;4.90;;;;;;;22.11;76.85;96417.36;110358;1242;59694;-68
2023/08/29 05:30:24;;;;;;;7.80;4.60;;;;;;;22.32;76.28;96420.82;110277;1242;71310;-68
2023/08/29 05:32:54;;;;;;;8.50;5.10;;;;;;;22.63;73.39;96418.52;110258;1242;69272;-68
2023/08/29 05:35:24;;;;;;;5.30;4.40;;;;;;;22.95;72.18;96414.67;110386;1242;69285;-68
2023/08/29 05:37:53;;;;;;;5.30;4.40;;;;;;;23.32;71.55;96411.77;110233;1241;59687;-68
2023/08/29 05:40:22;;;;;;;5.00;4.00;;;;;;;23.69;70.44;96407.80;110257;1242;59676;-68
2023/08/29 05:42:52;;;;;;;7.30;5.40;;;;;;;23.94;68.34;96411.22;110268;1240;70628;-69
2023/08/29 05:45:21;;;;;;;8.20;4.90;;;;;;;24.07;67.71;96415.08;110252;1242;68283;-69
2023/08/29 05:47:50;;;;;;;8.90;4.50;;;;;;;24.43;67.82;96416.24;110274;1242;69723;-68
2023/08/29 05:50:19;;;;;;;7.20;4.90;;;;;;;24.85;65.25;96413.90;110290;1242;59670;-68
2023/08/29 05:52:48;;;;;;;7.50;4.90;;;;;;;25.01;62.06;96412.35;110271;1242;59605;-69
2023/08/29 05:55:18;;;;;;;9.20;4.30;;;;;;;25.31;65.96;96408.84;110245;1242;72187;-68
2023/08/29 05:57:47;;;;;;;7.10;4.50;;;;;;;25.56;60.14;96405.66;110240;1242;69273;-68
2023/08/29 06:00:18;;;;;;;8.30;4.20;;;;;;;25.83;61.71;96404.99;110211;1242;68547;-67
2023/08/29 06:02:49;;;;;;;5.50;4.40;;;;;;;26.08;60.40;96403.42;110246;1242;59733;-67
2023/08/29 06:05:18;;;;;;;6.70;4.50;;;;;;;26.40;59.21;96403.48;110238;1241;59730;-68
2023/08/29 06:07:48;;;;;;;5.50;5.00;;;;;;;26.78;58.14;96400.85;110250;1248;69685;-69
2023/08/29 06:10:17;;;;;;;5.10;4.40;;;;;;;26.98;56.16;96394.25;110235;1242;69878;-67
2023/08/29 06:12:46;;;;;;;7.30;4.50;;;;;;;27.30;59.76;96392.02;110219;1242;68521;-66
2023/08/29 06:15:16;;;;;;;5.80;4.40;;;;;;;27.79;59.69;96390.95;110257;1241;59692;-67
2023/08/29 06:17:45;;;;;;;5.90;4.30;;;;;;;28.10;56.40;96390.65;110196;1242;59743;-67
2023/08/29 06:20:16;;;;;;;7.60;4.90;;;;;;;28.15;52.44;96389.16;110214;1242;70674;-66
2023/08/29 06:22:45;;;;;;;10.30;4.50;;;;;;;28.37;52.16;96391.02;110242;1243;69282;-68
2023/08/29 06:25:15;;;;;;;5.70;4.60;;;;;;;28.35;51.94;96391.71;110230;1242;69955;-67
2023/08/29 06:27:44;;;;;;;6.80;4.50;;;;;;;28.58;51.92;96396.59;110240;1242;59675;-65
2023/08/29 06:30:15;;;;;;;8.10;4.60;;;;;;;28.87;51.05;96399.79;110222;1242;59734;-67
2023/08/29 06:32:44;;;;;;;10.30;4.50;;;;;;;29.11;49.81;96396.94;110252;1242;71354;-67
2023/08/29 06:35:14;;;;;;;5.40;3.70;;;;;;;29.56;49.71;96391.61;110209;1242;70238;-67
2023/08/29 06:37:43;;;;;;;5.50;3.40;;;;;;;30.00;48.91;96385.98;110215;1249;69837;-68
2023/08/29 06:40:12;;;;;;;5.40;4.10;;;;;;;30.53;46.56;96383.70;110253;1242;59729;-67
2023/08/29 06:42:41;;;;;;;4.30;3.60;;;;;;;31.06;45.93;96381.58;110273;1241;59740;-67
2023/08/29 06:45:10;;;;;;;6.20;3.70;;;;;;;31.43;44.08;96380.80;110216;1242;72724;-66
2023/08/29 06:47:39;;;;;;;4.50;3.70;;;;;;;31.57;43.00;96375.33;110220;1242;69279;-68
2023/08/29 06:50:09;;;;;;;6.10;4.10;;;;;;;31.75;44.09;96375.61;110225;1242;68848;-68
2023/08/29 06:52:38;;;;;;;5.70;4.10;;;;;;;31.99;42.32;96372.77;110183;1241;59681;-66
2023/08/29 06:55:09;;;;;;;5.70;4.20;;;;;;;32.14;41.90;96373.58;110391;1242;59657;-67
2023/08/29 06:57:38;;;;;;;5.70;3.70;;;;;;;32.44;41.66;96371.73;110659;1240;71244;-67
2023/08/29 07:00:10;;;;;;;7.20;4.30;;;;;;;32.58;40.33;96369.62;110224;1241;69542;-66
2023/08/29 07:02:39;;;;;;;6.00;4.20;;;;;;;32.62;39.08;96364.20;110190;1242;68900;-68
2023/08/29 07:05:09;;;;;;;6.70;4.30;;;;;;;32.74;39.27;96369.65;109668;1241;661318;-67
2023/08/29 07:07:40;;;;;;;5.80;4.00;;;;;;;32.81;38.80;96367.83;110202;1241;59744;-66
2023/08/29 07:10:10;;;;;;;5.20;4.10;;;;;;;32.79;39.03;96366.21;110189;1242;70554;-66
2023/08/29 07:12:40;;;;;;;5.20;3.80;;;;;;;33.12;38.84;96366.16;110190;1241;69268;-67
2023/08/29 07:15:11;;;;;;;6.20;3.60;;;;;;;33.37;38.11;96361.08;110155;1242;68429;-67
2023/08/29 07:17:40;;;;;;;6.40;4.20;;;;;;;33.52;37.30;96361.64;110167;1241;59728;-68
2023/08/29 07:20:11;;;;;;;4.30;3.70;;;;;;;33.64;37.05;96364.50;110171;1241;60131;-68
2023/08/29 07:22:42;;;;;;;5.10;3.90;;;;;;;33.74;36.04;96365.45;110194;1242;71737;-67
2023/08/29 07:25:13;;;;;;;3.70;3.30;;;;;;;33.97;35.95;96360.21;110244;1241;70250;-67
2023/08/29 07:27:42;;;;;;;5.80;3.80;;;;;;;34.10;35.30;96364.27;110227;1242;69826;-67
2023/08/29 07:30:14;;;;;;;5.10;3.70;;;;;;;34.39;35.85;96366.02;110191;1242;59737;-67
2023/08/29 07:32:44;;;;;;;4.40;3.10;;;;;;;34.55;34.62;96368.48;110207;1242;59638;-67
2023/08/29 07:35:14;;;;;;;6.20;4.00;;;;;;;34.45;34.27;96370.29;110247;1242;71395;-66
2023/08/29 07:37:43;;;;;;;4.40;3.70;;;;;;;34.65;35.30;96370.11;110284;1242;70261;-67
2023/08/29 07:40:14;;;;;;;5.60;4.30;;;;;;;34.65;33.19;96366.10;110163;1243;70074;-67
2023/08/29 07:42:42;;;;;;;5.50;4.10;;;;;;;34.54;33.96;96366.77;110160;1243;59729;-66
2023/08/29 07:45:11;;;;;;;5.30;3.70;;;;;;;34.44;33.14;96369.15;110159;1242;59601;-66
2023/08/29 07:47:41;;;;;;;4.50;3.10;;;;;;;34.57;32.86;96371.25;110179;1242;70678;-68
2023/08/29 07:50:10;;;;;;;4.60;3.70;;;;;;;34.76;33.45;96372.52;110212;1244;69953;-65
2023/08/29 07:52:39;;;;;;;6.20;3.90;;;;;;;34.86;33.49;96376.58;110225;1248;69186;-67
2023/08/29 07:55:09;;;;;;;5.20;4.00;;;;;;;34.96;33.19;96380.19;110158;1249;59690;-67
2023/08/29 07:57:38;;;;;;;6.10;4.20;;;;;;;35.15;32.56;96377.95;110284;1241;59699;-66
2023/08/29 08:00:10;;;;;;;3.80;3.30;;;;;;;35.22;32.68;96380.88;110446;1240;72071;-67
2023/08/29 08:02:39;;;;;;;5.30;4.10;;;;;;;35.46;31.72;96379.39;110330;1242;69784;-67
2023/08/29 08:05:14;;;;;;;6.40;4.00;;;;;;;35.52;31.24;96379.26;110194;1241;69221;-66
2023/08/29 08:07:45;;;;;;;4.80;4.30;;;;;;;35.51;30.50;96376.56;110129;1244;59748;-67
2023/08/29 08:10:17;;;;;;;5.50;4.80;;;;;;;35.53;30.53;96372.94;110180;1242;59742;-65
2023/08/29 08:12:48;;;;;;;5.70;4.60;;;;;;;35.57;30.31;96371.25;110177;1240;71156;-65
2023/08/29 08:15:17;;;;;;;5.80;4.20;;;;;;;35.57;30.65;96370.87;110235;1240;68565;-66
2023/08/29 08:17:46;;;;;;;5.10;4.20;;;;;;;35.75;30.90;96372.09;110197;1240;68979;-67
2023/08/29 08:20:15;;;;;;;5.50;4.30;;;;;;;35.94;30.16;96367.91;110199;1240;59683;-68
2023/08/29 08:22:45;;;;;;;5.10;4.60;;;;;;;36.04;29.35;96365.35;110222;1242;59676;-65
2023/08/29 08:25:14;;;;;;;5.40;4.00;;;;;;;36.01;29.39;96364.63;110225;1242;72283;-67
2023/08/29 08:27:45;;;;;;;7.00;4.20;;;;;;;36.04;29.62;96357.93;110176;1247;68477;-66
2023/08/29 08:30:15;;;;;;;4.50;4.10;;;;;;;36.42;29.61;96356.76;110229;1242;69869;-64
2023/08/29 08:32:44;;;;;;;6.70;4.50;;;;;;;36.56;29.37;96358.65;110192;1242;59672;-66
2023/08/29 08:35:13;;;;;;;6.00;4.50;;;;;;;36.86;28.77;96361.94;110465;1241;59675;-67
2023/08/29 08:37:42;;;;;;;6.60;4.40;;;;;;;37.04;27.62;96356.95;110556;1242;71673;-66
2023/08/29 08:40:14;;;;;;;4.80;4.30;;;;;;;37.09;27.86;96358.70;110548;1242;69230;-66
2023/08/29 08:42:45;;;;;;;5.90;4.70;;;;;;;37.10;27.08;96356.97;110503;1242;69295;-66
2023/08/29 08:45:14;;;;;;;6.40;4.70;;;;;;;36.99;27.13;96352.86;110216;1241;59723;-66
2023/08/29 08:47:45;;;;;;;6.70;4.70;;;;;;;36.93;26.74;96349.61;110177;1242;59668;-67
2023/08/29 08:50:14;;;;;;;5.30;4.30;;;;;;;36.86;27.18;96346.05;110204;1243;71440;-66
2023/08/29 08:52:44;;;;;;;6.10;4.60;;;;;;;37.06;27.23;96342.58;110200;1242;69792;-66
2023/08/29 08:55:13;;;;;;;5.20;4.30;;;;;;;37.19;26.97;96340.92;110204;1242;69167;-66
2023/08/29 08:57:45;;;;;;;6.70;4.60;;;;;;;37.11;26.43;96336.37;110164;1242;59675;-66
2023/08/29 09:00:15;;;;;;;7.50;4.60;;;;;;;37.09;26.50;96334.50;110199;1242;59702;-67
2023/08/29 09:02:45;;;;;;;5.60;5.10;;;;;;;37.07;27.05;96331.56;110153;1242;71260;-67
2023/08/29 09:05:14;;;;;;;5.80;4.70;;;;;;;37.30;26.74;96333.45;110545;1240;69110;-66
2023/08/29 09:07:43;;;;;;;5.00;4.50;;;;;;;37.59;26.92;96324.89;110303;1240;68635;-66
2023/08/29 09:10:19;;;;;;;5.80;4.50;;;;;;;37.88;26.40;96320.07;110265;1242;59679;-65
2023/08/29 09:12:50;;;;;;;5.70;4.70;;;;;;;38.10;25.77;96312.11;110253;1241;59632;-67
2023/08/29 09:15:20;;;;;;;5.30;4.80;;;;;;;38.30;26.22;96309.05;110264;1242;72023;-67
2023/08/29 09:17:50;;;;;;;5.70;4.90;;;;;;;38.40;25.32;96303.64;110420;1241;69664;-66
2023/08/29 09:20:22;;;;;;;5.70;4.50;;;;;;;38.23;24.81;96303.63;110343;1242;69926;-66
2023/08/29 09:22:53;;;;;;;4.80;4.40;;;;;;;38.00;25.20;96304.25;110201;1245;59776;-66
2023/08/29 09:25:27;;;;;;;5.20;4.40;;;;;;;38.01;25.31;96302.00;110238;1249;59743;-65
2023/08/29 09:27:57;;;;;;;5.40;4.70;;;;;;;38.11;25.56;96301.61;110281;1242;71951;-66
2023/08/29 09:30:26;;;;;;;6.30;4.60;;;;;;;38.11;24.77;96298.48;110243;1242;69792;-66
2023/08/29 09:33:08;;;;;;;6.40;5.20;;;;;;;37.80;24.94;96299.80;110195;1242;68415;-66
2023/08/29 09:35:43;;;;;;;6.30;4.70;;;;;;;37.80;25.24;96302.79;110243;1242;60128;-67
2023/08/29 09:38:12;;;;;;;5.80;5.30;;;;;;;38.01;25.38;96300.90;110244;1242;59699;-65
2023/08/29 09:40:52;;;;;;;5.90;4.40;;;;;;;38.20;24.85;96301.30;110175;1242;71352;-66
2023/08/29 09:43:29;;;;;;;5.40;4.90;;;;;;;38.57;24.69;96303.27;110248;1242;70199;-67
2023/08/29 09:45:59;;;;;;;5.70;5.00;;;;;;;38.49;24.11;96306.40;110219;1242;70312;-66
2023/08/29 09:48:28;;;;;;;6.30;4.90;;;;;;;38.15;24.45;96300.23;110175;1240;59745;-66
2023/08/29 09:50:58;;;;;;;7.10;5.00;;;;;;;38.15;25.04;96296.03;110196;1242;59688;-67
2023/08/29 09:53:28;;;;;;;6.30;4.90;;;;;;;38.35;25.31;96295.34;110204;1242;72049;-66
2023/08/29 09:56:10;;;;;;;6.30;5.10;;;;;;;38.60;25.01;96288.66;110207;1243;69249;-67
2023/08/29 09:58:40;;;;;;;7.40;4.90;;;;;;;38.85;24.38;96288.20;110234;1242;69333;-67
2023/08/29 10:01:12;;;;;;;6.10;4.60;;;;;;;39.23;24.61;96289.07;110270;1243;59647;-67
2023/08/29 10:03:42;;;;;;;5.20;4.70;;;;;;;39.52;23.57;96288.63;110173;1244;59748;-66
2023/08/29 10:06:16;;;;;;;7.40;5.10;;;;;;;39.39;22.36;96288.95;110253;1243;71448;-65
2023/08/29 10:08:51;;;;;;;6.90;5.10;;;;;;;39.52;22.90;96293.38;110230;1242;69228;-66
2023/08/29 10:11:23;;;;;;;5.10;4.60;;;;;;;39.51;22.52;96294.29;110234;1242;69348;-68
2023/08/29 10:13:53;;;;;;;7.40;4.90;;;;;;;39.39;22.62;96291.26;110189;1243;59668;-64
2023/08/29 10:16:22;;;;;;;5.30;4.80;;;;;;;39.14;23.28;96287.02;110304;1242;59692;-66
2023/08/29 10:18:52;;;;;;;6.50;5.10;;;;;;;39.26;23.17;96284.67;110379;1242;71962;-65
2023/08/29 10:21:22;;;;;;;6.10;5.00;;;;;;;39.22;22.47;96279.98;110238;1242;70265;-67
2023/08/29 10:23:51;;;;;;;6.00;5.30;;;;;;;39.24;22.91;96279.81;110424;1241;70073;-67
2023/08/29 10:26:21;;;;;;;7.00;5.10;;;;;;;39.49;22.61;96280.11;110292;1240;59717;-67
2023/08/29 10:28:56;;;;;;;4.70;4.10;;;;;;;39.54;22.20;96276.88;110299;1242;59680;-67
2023/08/29 10:31:26;;;;;;;8.80;5.40;;;;;;;39.51;22.23;96278.94;110327;1242;71461;-68
2023/08/29 10:33:56;;;;;;;6.50;5.00;;;;;;;39.45;22.28;96279.18;110267;1242;69625;-67
2023/08/29 10:36:25;;;;;;;5.30;4.80;;;;;;;39.59;22.44;96278.39;110232;1242;69953;-68
2023/08/29 10:38:57;;;;;;;5.60;5.00;;;;;;;39.89;22.28;96276.38;110284;1241;59680;-67
2023/08/29 10:41:42;;;;;;;7.00;5.90;;;;;;;40.03;21.77;96270.81;110265;1242;59696;-68
2023/08/29 10:44:24;;;;;;;6.40;4.60;;;;;;;39.84;22.02;96275.75;110277;1241;72041;-67
2023/08/29 10:46:54;;;;;;;6.00;5.20;;;;;;;40.02;21.90;96271.56;110294;1241;69150;-66
2023/08/29 10:49:23;;;;;;;5.70;5.10;;;;;;;40.12;21.54;96272.73;110181;1247;69735;-67
2023/08/29 10:52:08;;;;;;;5.40;4.90;;;;;;;40.29;21.79;96277.70;110181;1242;59718;-65
2023/08/29 10:54:37;;;;;;;5.50;5.00;;;;;;;40.65;21.32;96276.96;110198;1241;59666;-65
2023/08/29 10:57:26;;;;;;;6.30;5.00;;;;;;;40.74;21.69;96271.64;110245;1241;71269;-66
2023/08/29 10:59:57;;;;;;;7.60;5.00;;;;;;;40.85;20.84;96270.33;110274;1242;69836;-66
2023/08/29 11:02:30;;;;;;;7.80;5.80;;;;;;;40.72;20.84;96266.86;110185;1242;69863;-67
2023/08/29 11:05:03;;;;;;;5.90;4.90;;;;;;;40.54;21.18;96267.03;110210;1242;59695;-65
2023/08/29 11:07:32;;;;;;;6.50;4.80;;;;;;;40.29;21.01;96258.55;110227;1242;60088;-66
2023/08/29 11:10:22;;;;;;;6.90;4.90;;;;;;;40.26;21.05;96259.05;110238;1242;71955;-66
2023/08/29 11:13:11;;;;;;;5.90;5.30;;;;;;;40.24;21.56;96257.48;110240;1246;69883;-66
2023/08/29 11:15:49;;;;;;;6.70;5.20;;;;;;;40.26;21.39;96257.98;110228;1242;69882;-65
2023/08/29 11:18:26;;;;;;;6.10;5.10;;;;;;;40.08;21.22;96257.00;110322;1241;59760;-66
2023/08/29 11:20:55;;;;;;;6.40;5.40;;;;;;;40.09;21.46;96247.65;110235;1242;59734;-67
2023/08/29 11:23:25;;;;;;;7.30;5.10;;;;;;;40.12;21.40;96246.68;110303;1241;71799;-67
2023/08/29 11:25:53;;;;;;;6.10;5.00;;;;;;;40.09;21.23;96242.41;110225;1242;70609;-67
2023/08/29 11:28:23;;;;;;;6.80;5.30;;;;;;;40.23;21.35;96238.84;110162;1242;69875;-68
2023/08/29 11:30:52;;;;;;;5.50;4.90;;;;;;;40.14;21.39;96236.77;110179;1242;59675;-67
2023/08/29 11:33:29;;;;;;;6.20;4.60;;;;;;;40.09;21.80;96238.02;110463;1241;59708;-67
2023/08/29 11:36:00;;;;;;;7.70;4.80;;;;;;;40.13;21.89;96235.48;110197;1242;71198;-67
2023/08/29 11:38:31;;;;;;;6.70;5.60;;;;;;;40.14;21.67;96232.86;110207;1240;69593;-67
2023/08/29 11:41:06;;;;;;;8.10;5.30;;;;;;;40.24;21.89;96232.86;110404;1240;69727;-68
2023/08/29 11:43:49;;;;;;;5.60;4.80;;;;;;;40.41;21.81;96238.60;110221;1242;60059;-68
2023/08/29 11:46:39;;;;;;;6.80;5.00;;;;;;;40.59;21.56;96232.98;110185;1241;59729;-69